sensor_id;sensor_type;location;lat;lon;timestamp;P1;durP1;ratioP1;P2;durP2;ratioP2
47155;SDS011;32908;52.344;16.858;2022-08-21T07:14:35;4.13;;;2.53;;
47155;SDS011;32908;52.344;16.858;2022-08-21T07:17:03;4.27;;;2.10;;
47155;SDS011;32908;52.344;16.858;2022-08-21T07:19:31;3.40;;;2.10;;
47155;SDS011;32908;52.344;16.858;2022-08-21T07:21:59;5.13;;;2.30;;
47155;SDS011;32908;52.344;16.858;2022-08-21T07:24:28;4.37;;;2.30;;
47155;SDS011;32908;52.344;16.858;2022-08-21T07:26:56;4.30;;;2.27;;
47155;SDS011;32908;52.344;16.858;2022-08-21T07:29:24;3.43;;;2.30;;
47155;SDS011;32908;52.344;16.858;2022-08-21T07:31:52;4.67;;;2.30;;
47155;SDS011;32908;52.344;16.858;2022-08-21T07:34:20;5.10;;;2.67;;
47155;SDS011;32908;52.344;16.858;2022-08-21T07:36:48;4.00;;;2.40;;
47155;SDS011;32908;52.344;16.858;2022-08-21T07:39:17;4.47;;;2.60;;
47155;SDS011;32908;52.344;16.858;2022-08-21T07:41:44;3.83;;;2.30;;
47155;SDS011;32908;52.344;16.858;2022-08-21T07:44:12;4.87;;;3.00;;
47155;SDS011;32908;52.344;16.858;2022-08-21T07:46:40;4.23;;;2.70;;
47155;SDS011;32908;52.344;16.858;2022-08-21T07:49:08;4.07;;;2.57;;
47155;SDS011;32908;52.344;16.858;2022-08-21T07:51:36;6.57;;;3.17;;
47155;SDS011;32908;52.344;16.858;2022-08-21T07:54:05;6.13;;;2.93;;
47155;SDS011;32908;52.344;16.858;2022-08-21T07:56:33;4.63;;;2.37;;
47155;SDS011;32908;52.344;16.858;2022-08-21T07:59:00;6.90;;;2.67;;
47155;SDS011;32908;52.344;16.858;2022-08-21T08:01:29;4.10;;;2.23;;
47155;SDS011;32908;52.344;16.858;2022-08-21T08:03:57;5.30;;;2.30;;
47155;SDS011;32908;52.344;16.858;2022-08-21T08:06:25;6.13;;;3.17;;
47155;SDS011;32908;52.344;16.858;2022-08-21T08:08:53;5.63;;;2.70;;
47155;SDS011;32908;52.344;16.858;2022-08-21T08:11:21;6.20;;;3.07;;
47155;SDS011;32908;52.344;16.858;2022-08-21T08:13:50;4.80;;;2.90;;
47155;SDS011;32908;52.344;16.858;2022-08-21T08:16:18;6.60;;;3.03;;
47155;SDS011;32908;52.344;16.858;2022-08-21T08:18:46;6.80;;;2.97;;
47155;SDS011;32908;52.344;16.858;2022-08-21T08:21:14;4.47;;;2.50;;
47155;SDS011;32908;52.344;16.858;2022-08-21T08:23:44;6.67;;;3.03;;
47155;SDS011;32908;52.344;16.858;2022-08-21T08:26:12;5.47;;;3.20;;
47155;SDS011;32908;52.344;16.858;2022-08-21T08:28:42;7.23;;;3.00;;
47155;SDS011;32908;52.344;16.858;2022-08-21T08:31:10;7.47;;;3.10;;
47155;SDS011;32908;52.344;16.858;2022-08-21T08:33:38;4.83;;;2.90;;
47155;SDS011;32908;52.344;16.858;2022-08-21T08:36:11;7.23;;;3.00;;
47155;SDS011;32908;52.344;16.858;2022-08-21T08:38:41;4.83;;;2.73;;
47155;SDS011;32908;52.344;16.858;2022-08-21T08:41:10;4.93;;;2.77;;
47155;SDS011;32908;52.344;16.858;2022-08-21T08:43:40;5.60;;;2.70;;
47155;SDS011;32908;52.344;16.858;2022-08-21T08:46:20;4.23;;;2.63;;
47155;SDS011;32908;52.344;16.858;2022-08-21T08:48:53;3.13;;;2.30;;
47155;SDS011;32908;52.344;16.858;2022-08-21T08:51:25;4.95;;;2.60;;
47155;SDS011;32908;52.344;16.858;2022-08-21T08:54:09;3.47;;;2.20;;
47155;SDS011;32908;52.344;16.858;2022-08-21T08:56:39;3.85;;;2.50;;
47155;SDS011;32908;52.344;16.858;2022-08-21T08:59:08;6.10;;;2.80;;
47155;SDS011;32908;52.344;16.858;2022-08-21T09:01:40;3.50;;;2.43;;
47155;SDS011;32908;52.344;16.858;2022-08-21T09:04:09;5.03;;;2.47;;
47155;SDS011;32908;52.344;16.858;2022-08-21T09:06:42;6.05;;;2.65;;
47155;SDS011;32908;52.344;16.858;2022-08-21T09:09:31;3.77;;;2.60;;
47155;SDS011;32908;52.344;16.858;2022-08-21T09:12:06;4.07;;;2.67;;
47155;SDS011;32908;52.344;16.858;2022-08-21T09:14:41;3.47;;;2.83;;
47155;SDS011;32908;52.344;16.858;2022-08-21T09:17:26;5.53;;;2.80;;
47155;SDS011;32908;52.344;16.858;2022-08-21T09:20:09;3.57;;;2.60;;
47155;SDS011;32908;52.344;16.858;2022-08-21T09:22:46;5.40;;;2.70;;
47155;SDS011;32908;52.344;16.858;2022-08-21T09:25:20;4.73;;;2.80;;
47155;SDS011;32908;52.344;16.858;2022-08-21T09:27:49;3.65;;;2.60;;
47155;SDS011;32908;52.344;16.858;2022-08-21T09:30:17;4.20;;;2.80;;
47155;SDS011;32908;52.344;16.858;2022-08-21T09:32:51;5.30;;;2.63;;
47155;SDS011;32908;52.344;16.858;2022-08-21T09:35:19;2.93;;;2.30;;
47155;SDS011;32908;52.344;16.858;2022-08-21T09:37:50;4.57;;;2.70;;
47155;SDS011;32908;52.344;16.858;2022-08-21T09:40:23;5.57;;;2.73;;
47155;SDS011;32908;52.344;16.858;2022-08-21T09:42:57;4.23;;;2.77;;
47155;SDS011;32908;52.344;16.858;2022-08-21T09:45:27;4.63;;;2.83;;
47155;SDS011;32908;52.344;16.858;2022-08-21T09:47:55;4.40;;;3.20;;
47155;SDS011;32908;52.344;16.858;2022-08-21T09:50:34;5.13;;;2.60;;
47155;SDS011;32908;52.344;16.858;2022-08-21T09:53:02;2.63;;;2.40;;
47155;SDS011;32908;52.344;16.858;2022-08-21T09:55:31;3.57;;;2.30;;
47155;SDS011;32908;52.344;16.858;2022-08-21T09:58:19;4.27;;;2.83;;
47155;SDS011;32908;52.344;16.858;2022-08-21T10:00:56;5.57;;;2.90;;
47155;SDS011;32908;52.344;16.858;2022-08-21T10:03:25;3.60;;;2.40;;
47155;SDS011;32908;52.344;16.858;2022-08-21T10:05:56;4.70;;;2.40;;
47155;SDS011;32908;52.344;16.858;2022-08-21T10:08:25;3.50;;;2.50;;
47155;SDS011;32908;52.344;16.858;2022-08-21T10:10:55;2.93;;;2.20;;
47155;SDS011;32908;52.344;16.858;2022-08-21T10:13:39;2.40;;;2.10;;
47155;SDS011;32908;52.344;16.858;2022-08-21T10:16:15;4.30;;;2.60;;
47155;SDS011;32908;52.344;16.858;2022-08-21T10:18:52;4.37;;;2.97;;
47155;SDS011;32908;52.344;16.858;2022-08-21T10:21:28;3.33;;;2.70;;
47155;SDS011;32908;52.344;16.858;2022-08-21T10:24:03;6.10;;;3.30;;
47155;SDS011;32908;52.344;16.858;2022-08-21T10:26:38;4.53;;;2.70;;
47155;SDS011;32908;52.344;16.858;2022-08-21T10:29:14;2.90;;;2.60;;
47155;SDS011;32908;52.344;16.858;2022-08-21T10:31:52;3.30;;;2.70;;
47155;SDS011;32908;52.344;16.858;2022-08-21T10:34:29;4.50;;;2.50;;
47155;SDS011;32908;52.344;16.858;2022-08-21T10:37:07;3.30;;;2.70;;
47155;SDS011;32908;52.344;16.858;2022-08-21T10:39:45;4.25;;;2.90;;
47155;SDS011;32908;52.344;16.858;2022-08-21T10:42:25;5.33;;;2.75;;
47155;SDS011;32908;52.344;16.858;2022-08-21T10:45:00;4.40;;;2.60;;
47155;SDS011;32908;52.344;16.858;2022-08-21T10:47:44;4.27;;;2.63;;
47155;SDS011;32908;52.344;16.858;2022-08-21T10:50:19;3.20;;;2.40;;
47155;SDS011;32908;52.344;16.858;2022-08-21T10:53:00;2.93;;;2.63;;
47155;SDS011;32908;52.344;16.858;2022-08-21T10:55:44;3.20;;;2.50;;
47155;SDS011;32908;52.344;16.858;2022-08-21T10:58:18;3.03;;;2.73;;
47155;SDS011;32908;52.344;16.858;2022-08-21T11:00:51;3.53;;;2.53;;
47155;SDS011;32908;52.344;16.858;2022-08-21T11:03:24;2.57;;;2.17;;
47155;SDS011;32908;52.344;16.858;2022-08-21T11:05:57;2.50;;;2.30;;
47155;SDS011;32908;52.344;16.858;2022-08-21T11:08:28;3.20;;;2.30;;
47155;SDS011;32908;52.344;16.858;2022-08-21T11:10:59;2.10;;;1.90;;
47155;SDS011;32908;52.344;16.858;2022-08-21T11:13:33;2.10;;;2.00;;
47155;SDS011;32908;52.344;16.858;2022-08-21T11:16:05;2.13;;;2.03;;
47155;SDS011;32908;52.344;16.858;2022-08-21T11:18:36;2.00;;;1.90;;
47155;SDS011;32908;52.344;16.858;2022-08-21T11:21:08;2.90;;;2.50;;
47155;SDS011;32908;52.344;16.858;2022-08-21T11:23:47;2.30;;;2.10;;
47155;SDS011;32908;52.344;16.858;2022-08-21T11:26:23;2.57;;;2.33;;
47155;SDS011;32908;52.344;16.858;2022-08-21T11:28:58;3.73;;;2.60;;
47155;SDS011;32908;52.344;16.858;2022-08-21T11:31:34;2.10;;;2.00;;
47155;SDS011;32908;52.344;16.858;2022-08-21T11:34:15;2.27;;;2.07;;
47155;SDS011;32908;52.344;16.858;2022-08-21T11:36:54;2.30;;;2.10;;
47155;SDS011;32908;52.344;16.858;2022-08-21T11:39:26;2.47;;;2.17;;
47155;SDS011;32908;52.344;16.858;2022-08-21T11:42:02;5.13;;;2.97;;
47155;SDS011;32908;52.344;16.858;2022-08-21T11:44:38;3.07;;;2.70;;
47155;SDS011;32908;52.344;16.858;2022-08-21T11:47:11;3.00;;;2.70;;
47155;SDS011;32908;52.344;16.858;2022-08-21T11:49:45;2.57;;;2.37;;
47155;SDS011;32908;52.344;16.858;2022-08-21T11:52:21;2.40;;;2.13;;
47155;SDS011;32908;52.344;16.858;2022-08-21T11:54:52;2.70;;;1.85;;
47155;SDS011;32908;52.344;16.858;2022-08-21T11:57:24;2.80;;;2.13;;
47155;SDS011;32908;52.344;16.858;2022-08-21T11:59:55;2.50;;;2.30;;
47155;SDS011;32908;52.344;16.858;2022-08-21T12:02:28;2.07;;;1.93;;
47155;SDS011;32908;52.344;16.858;2022-08-21T12:04:59;3.63;;;2.03;;
47155;SDS011;32908;52.344;16.858;2022-08-21T12:07:31;2.30;;;2.10;;
47155;SDS011;32908;52.344;16.858;2022-08-21T12:10:03;2.80;;;2.00;;
47155;SDS011;32908;52.344;16.858;2022-08-21T12:12:34;3.00;;;2.00;;
47155;SDS011;32908;52.344;16.858;2022-08-21T12:15:17;3.20;;;1.90;;
47155;SDS011;32908;52.344;16.858;2022-08-21T12:17:58;3.87;;;2.50;;
47155;SDS011;32908;52.344;16.858;2022-08-21T12:20:39;2.07;;;1.93;;
47155;SDS011;32908;52.344;16.858;2022-08-21T12:23:18;2.50;;;2.10;;
47155;SDS011;32908;52.344;16.858;2022-08-21T12:26:00;2.87;;;2.20;;
47155;SDS011;32908;52.344;16.858;2022-08-21T12:28:30;3.27;;;1.90;;
47155;SDS011;32908;52.344;16.858;2022-08-21T12:30:58;3.03;;;2.00;;
47155;SDS011;32908;52.344;16.858;2022-08-21T12:33:27;2.30;;;1.93;;
47155;SDS011;32908;52.344;16.858;2022-08-21T12:36:02;2.37;;;2.17;;
47155;SDS011;32908;52.344;16.858;2022-08-21T12:38:34;3.53;;;2.00;;
47155;SDS011;32908;52.344;16.858;2022-08-21T12:41:12;2.17;;;1.67;;
47155;SDS011;32908;52.344;16.858;2022-08-21T12:43:43;2.67;;;1.90;;
47155;SDS011;32908;52.344;16.858;2022-08-21T12:46:15;2.03;;;1.83;;
47155;SDS011;32908;52.344;16.858;2022-08-21T12:48:47;2.63;;;1.70;;
47155;SDS011;32908;52.344;16.858;2022-08-21T12:51:18;2.53;;;2.10;;
47155;SDS011;32908;52.344;16.858;2022-08-21T12:53:49;2.37;;;1.83;;
47155;SDS011;32908;52.344;16.858;2022-08-21T12:56:21;2.43;;;1.70;;
47155;SDS011;32908;52.344;16.858;2022-08-21T12:58:53;3.70;;;2.10;;
47155;SDS011;32908;52.344;16.858;2022-08-21T13:01:24;2.93;;;1.80;;
47155;SDS011;32908;52.344;16.858;2022-08-21T13:03:54;2.55;;;1.70;;
47155;SDS011;32908;52.344;16.858;2022-08-21T13:06:32;3.23;;;2.00;;
47155;SDS011;32908;52.344;16.858;2022-08-21T13:09:05;3.50;;;1.93;;
47155;SDS011;32908;52.344;16.858;2022-08-21T13:11:34;2.27;;;2.07;;
47155;SDS011;32908;52.344;16.858;2022-08-21T13:14:03;3.70;;;1.97;;
47155;SDS011;32908;52.344;16.858;2022-08-21T13:16:31;3.03;;;2.00;;
47155;SDS011;32908;52.344;16.858;2022-08-21T13:19:01;2.03;;;1.90;;
47155;SDS011;32908;52.344;16.858;2022-08-21T13:21:33;5.40;;;1.93;;
47155;SDS011;32908;52.344;16.858;2022-08-21T13:24:13;3.07;;;1.87;;
47155;SDS011;32908;52.344;16.858;2022-08-21T13:26:43;2.70;;;2.00;;
47155;SDS011;32908;52.344;16.858;2022-08-21T13:29:13;2.00;;;1.80;;
47155;SDS011;32908;52.344;16.858;2022-08-21T13:31:47;3.17;;;1.90;;
47155;SDS011;32908;52.344;16.858;2022-08-21T13:34:16;3.00;;;2.00;;
47155;SDS011;32908;52.344;16.858;2022-08-21T13:36:45;2.00;;;1.80;;
47155;SDS011;32908;52.344;16.858;2022-08-21T13:39:16;2.65;;;2.05;;
47155;SDS011;32908;52.344;16.858;2022-08-21T13:41:46;2.50;;;2.23;;
47155;SDS011;32908;52.344;16.858;2022-08-21T13:44:17;3.77;;;2.57;;
47155;SDS011;32908;52.344;16.858;2022-08-21T13:46:46;2.30;;;1.90;;
47155;SDS011;32908;52.344;16.858;2022-08-21T13:49:17;2.27;;;2.07;;
47155;SDS011;32908;52.344;16.858;2022-08-21T13:51:46;3.63;;;2.27;;
47155;SDS011;32908;52.344;16.858;2022-08-21T13:54:20;2.53;;;2.10;;
47155;SDS011;32908;52.344;16.858;2022-08-21T13:56:50;2.20;;;1.97;;
47155;SDS011;32908;52.344;16.858;2022-08-21T13:59:25;2.57;;;2.03;;
47155;SDS011;32908;52.344;16.858;2022-08-21T14:01:55;2.40;;;2.20;;
47155;SDS011;32908;52.344;16.858;2022-08-21T14:04:29;3.23;;;2.23;;
47155;SDS011;32908;52.344;16.858;2022-08-21T14:07:00;2.37;;;1.60;;
47155;SDS011;32908;52.344;16.858;2022-08-21T14:09:30;4.20;;;2.43;;
